createdAt,value
2022-08-30T00:01:14.940Z,4.45
2022-08-30T00:03:47.482Z,4.78
2022-08-30T00:06:19.597Z,4.10
2022-08-30T00:08:49.270Z,4.40
2022-08-30T00:11:22.245Z,4.55
2022-08-30T00:13:51.998Z,4.70
2022-08-30T00:16:21.110Z,4.22
2022-08-30T00:18:49.188Z,4.40
2022-08-30T00:21:16.781Z,4.40
2022-08-30T00:23:44.090Z,4.25
2022-08-30T00:26:11.445Z,4.40
2022-08-30T00:28:39.154Z,4.40
2022-08-30T00:31:07.615Z,4.93
2022-08-30T00:33:35.214Z,4.35
2022-08-30T00:36:03.334Z,4.68
2022-08-30T00:38:30.787Z,4.78
2022-08-30T00:40:59.993Z,4.20
2022-08-30T00:43:31.073Z,4.93
2022-08-30T00:45:58.822Z,4.55
2022-08-30T00:48:26.403Z,4.57
2022-08-30T00:50:58.331Z,4.32
2022-08-30T00:53:29.343Z,4.32
2022-08-30T00:55:57.881Z,4.60
2022-08-30T00:58:29.599Z,4.25
2022-08-30T01:00:59.579Z,4.18
2022-08-30T01:03:27.285Z,4.00
2022-08-30T01:05:54.936Z,3.88
2022-08-30T01:08:22.690Z,4.47
2022-08-30T01:10:51.886Z,4.30
2022-08-30T01:13:21.994Z,4.63
2022-08-30T01:15:50.871Z,4.45
2022-08-30T01:18:22.214Z,4.28
2022-08-30T01:21:00.778Z,4.50
2022-08-30T01:23:29.185Z,4.50
2022-08-30T01:25:58.546Z,4.65
2022-08-30T01:28:27.796Z,4.40
2022-08-30T01:30:55.199Z,4.72
2022-08-30T01:33:23.908Z,4.83
2022-08-30T01:36:00.754Z,4.40
2022-08-30T01:38:34.973Z,4.82
2022-08-30T01:41:13.508Z,4.93
2022-08-30T01:43:41.173Z,4.10
2022-08-30T01:46:11.250Z,4.60
2022-08-30T01:48:41.664Z,4.63
2022-08-30T01:51:18.208Z,4.20
2022-08-30T01:53:46.121Z,4.28
2022-08-30T01:56:14.821Z,4.35
2022-08-30T01:58:43.729Z,4.50
2022-08-30T02:01:14.250Z,4.70
2022-08-30T02:03:43.836Z,4.95
2022-08-30T02:06:15.005Z,4.45
2022-08-30T02:08:44.761Z,4.80
2022-08-30T02:11:13.691Z,5.50
2022-08-30T02:13:43.380Z,5.03
2022-08-30T02:16:13.962Z,4.57
2022-08-30T02:18:41.899Z,5.10
2022-08-30T02:21:10.064Z,4.90
2022-08-30T02:23:37.585Z,4.87
2022-08-30T02:26:05.508Z,5.40
2022-08-30T02:28:33.002Z,5.40
2022-08-30T02:31:01.312Z,5.10
2022-08-30T02:33:28.856Z,5.05
2022-08-30T02:35:56.494Z,5.13
2022-08-30T02:38:25.256Z,5.13
2022-08-30T02:40:52.994Z,5.25
2022-08-30T02:43:20.731Z,5.32
2022-08-30T02:45:48.223Z,4.88
2022-08-30T02:48:16.036Z,5.00
2022-08-30T02:50:46.811Z,5.15
2022-08-30T02:53:16.379Z,5.78
2022-08-30T02:55:44.161Z,5.13
2022-08-30T02:58:11.742Z,5.43
2022-08-30T03:00:39.963Z,5.03
2022-08-30T03:03:08.053Z,5.30
2022-08-30T03:05:39.814Z,5.00
2022-08-30T03:08:08.302Z,4.72
2022-08-30T03:10:36.214Z,5.35
2022-08-30T03:13:03.923Z,5.10
2022-08-30T03:15:31.423Z,5.43
2022-08-30T03:17:58.952Z,5.30
2022-08-30T03:20:26.571Z,5.55
2022-08-30T03:22:54.210Z,4.60
2022-08-30T03:25:23.050Z,5.13
2022-08-30T03:27:50.987Z,5.28
2022-08-30T03:30:20.157Z,5.53
2022-08-30T03:32:48.285Z,5.97
2022-08-30T03:35:17.620Z,5.80
2022-08-30T03:37:46.175Z,5.47
2022-08-30T03:40:17.403Z,5.85
2022-08-30T03:42:46.957Z,5.72
2022-08-30T03:45:16.470Z,5.72
2022-08-30T03:47:44.205Z,6.10
2022-08-30T03:50:13.323Z,5.80
2022-08-30T03:52:40.833Z,5.55
2022-08-30T03:55:08.561Z,5.90
2022-08-30T03:57:36.691Z,6.32
2022-08-30T04:00:06.508Z,6.22
2022-08-30T04:02:39.566Z,5.87
2022-08-30T04:05:07.924Z,5.95
2022-08-30T04:07:35.512Z,5.35
2022-08-30T04:10:03.820Z,6.63
2022-08-30T04:12:31.861Z,6.18
2022-08-30T04:14:59.488Z,5.93
2022-08-30T04:17:26.980Z,5.88
2022-08-30T04:19:54.379Z,6.03
2022-08-30T04:22:22.386Z,6.18
2022-08-30T04:24:49.734Z,6.30
2022-08-30T04:27:20.469Z,5.97
2022-08-30T04:29:48.489Z,5.93
2022-08-30T04:32:16.521Z,5.68
2022-08-30T04:34:44.553Z,6.00
2022-08-30T04:37:12.035Z,5.63
2022-08-30T04:39:40.104Z,5.40
2022-08-30T04:42:08.787Z,6.07
2022-08-30T04:44:36.262Z,5.53
2022-08-30T04:47:03.772Z,5.75
2022-08-30T04:49:33.199Z,5.55
2022-08-30T04:52:00.872Z,6.10
2022-08-30T04:54:28.228Z,5.35
2022-08-30T04:56:55.591Z,5.90
2022-08-30T04:59:22.932Z,5.63
2022-08-30T05:01:50.367Z,5.68
2022-08-30T05:04:17.877Z,5.07
2022-08-30T05:06:45.519Z,5.72
2022-08-30T05:09:13.279Z,5.72
2022-08-30T05:11:40.684Z,5.75
2022-08-30T05:14:08.123Z,6.10
2022-08-30T05:16:36.365Z,6.13
2022-08-30T05:19:04.381Z,5.88
2022-08-30T05:21:32.008Z,6.05
2022-08-30T05:24:01.044Z,5.75
2022-08-30T05:26:32.087Z,5.82
2022-08-30T05:29:00.104Z,5.90
2022-08-30T05:31:34.872Z,5.50
2022-08-30T05:34:02.829Z,5.43
2022-08-30T05:36:32.323Z,5.88
2022-08-30T05:39:01.340Z,5.40
2022-08-30T05:41:30.203Z,5.30
2022-08-30T05:44:00.078Z,5.75
2022-08-30T05:49:07.861Z,6.10
2022-08-30T05:51:41.137Z,6.07
2022-08-30T05:54:12.848Z,6.93
2022-08-30T05:56:42.553Z,5.65
2022-08-30T05:59:10.148Z,6.10
2022-08-30T06:01:40.878Z,6.15
2022-08-30T06:04:10.895Z,5.95
2022-08-30T06:06:40.864Z,5.90
2022-08-30T06:09:09.456Z,5.60
2022-08-30T06:11:36.967Z,6.53
2022-08-30T06:14:05.663Z,6.03
2022-08-30T06:16:33.280Z,5.57
2022-08-30T06:19:01.184Z,5.60
2022-08-30T06:21:34.822Z,5.53
2022-08-30T06:24:05.124Z,6.47
2022-08-30T06:29:05.039Z,6.03
2022-08-30T06:31:33.831Z,6.27
2022-08-30T06:34:01.247Z,6.57
2022-08-30T06:36:28.643Z,6.07
2022-08-30T06:38:58.008Z,6.57
2022-08-30T06:41:28.310Z,6.07
2022-08-30T06:43:57.079Z,6.20
2022-08-30T06:46:32.629Z,5.90
2022-08-30T06:49:01.042Z,7.50
2022-08-30T06:51:32.809Z,6.32
2022-08-30T06:54:03.177Z,5.80
2022-08-30T06:56:32.627Z,6.37
2022-08-30T06:59:00.189Z,6.15
2022-08-30T07:01:30.729Z,6.72
2022-08-30T07:03:58.982Z,5.85
2022-08-30T07:06:26.607Z,5.90
2022-08-30T07:08:56.207Z,7.13
2022-08-30T07:11:29.802Z,6.45
2022-08-30T07:13:57.650Z,6.43
2022-08-30T07:16:26.596Z,6.78
2022-08-30T07:18:55.647Z,7.60
2022-08-30T07:21:35.536Z,6.13
2022-08-30T07:24:04.051Z,7.05
2022-08-30T07:26:42.808Z,6.93
2022-08-30T07:29:10.975Z,6.28
2022-08-30T07:31:38.571Z,6.80
2022-08-30T07:34:07.400Z,6.23
2022-08-30T07:36:36.774Z,6.40
2022-08-30T07:39:06.075Z,6.50
2022-08-30T07:41:39.109Z,6.85
2022-08-30T07:44:07.988Z,6.10
2022-08-30T07:46:36.325Z,6.23
2022-08-30T07:49:04.654Z,6.13
2022-08-30T07:51:41.004Z,6.70
2022-08-30T07:54:08.447Z,6.78
2022-08-30T07:56:36.312Z,6.93
2022-08-30T07:59:04.041Z,6.53
2022-08-30T08:01:31.996Z,7.40
2022-08-30T08:03:59.456Z,6.75
2022-08-30T08:06:28.888Z,7.07
2022-08-30T08:09:02.718Z,6.63
2022-08-30T08:11:33.916Z,6.60
2022-08-30T08:14:04.475Z,6.60
2022-08-30T08:16:34.111Z,6.90
2022-08-30T08:19:01.709Z,6.97
2022-08-30T08:21:29.313Z,7.15
2022-08-30T08:23:56.681Z,6.50
2022-08-30T08:26:24.250Z,6.78
2022-08-30T08:28:54.041Z,6.20
2022-08-30T08:31:31.435Z,6.07
2022-08-30T08:34:03.767Z,7.03
2022-08-30T08:36:31.830Z,7.00
2022-08-30T08:38:59.469Z,6.88
2022-08-30T08:41:59.802Z,7.55
2022-08-30T08:44:58.113Z,6.82
2022-08-30T08:47:34.519Z,6.07
2022-08-30T08:50:06.526Z,5.77
2022-08-30T08:53:20.488Z,5.88
2022-08-30T08:55:58.390Z,5.90
2022-08-30T08:58:32.931Z,5.50
2022-08-30T09:01:01.087Z,6.57
2022-08-30T09:03:30.572Z,7.03
2022-08-30T09:06:11.202Z,5.85
2022-08-30T09:08:38.584Z,6.10
2022-08-30T09:11:13.682Z,6.15
2022-08-30T09:13:41.134Z,6.10
2022-08-30T09:16:08.999Z,5.80
2022-08-30T09:18:52.653Z,6.28
2022-08-30T09:21:26.244Z,6.75
2022-08-30T09:24:05.080Z,6.15
2022-08-30T09:26:36.395Z,5.75
2022-08-30T09:29:05.833Z,6.47
2022-08-30T09:31:47.727Z,6.22
2022-08-30T09:34:24.582Z,7.13
2022-08-30T09:36:54.311Z,5.75
2022-08-30T09:39:30.600Z,5.85
2022-08-30T09:42:25.681Z,6.13
2022-08-30T09:45:10.729Z,6.07
2022-08-30T09:47:43.982Z,5.80
2022-08-30T09:50:21.387Z,6.07
2022-08-30T09:53:10.189Z,6.10
2022-08-30T09:55:55.428Z,6.77
2022-08-30T09:58:46.710Z,6.40
2022-08-30T10:01:30.181Z,6.03
2022-08-30T10:04:39.541Z,6.70
2022-08-30T10:07:20.331Z,5.55
2022-08-30T10:09:52.118Z,5.50
2022-08-30T10:12:31.665Z,6.88
2022-08-30T10:15:15.300Z,7.32
2022-08-30T10:17:51.166Z,6.88
2022-08-30T10:20:33.884Z,7.85
2022-08-30T10:23:09.609Z,7.17
2022-08-30T10:25:50.858Z,6.72
2022-08-30T10:28:42.481Z,6.57
2022-08-30T10:31:27.217Z,7.28
2022-08-30T10:34:01.872Z,6.95
2022-08-30T10:36:36.376Z,6.87
2022-08-30T10:39:04.800Z,6.75
2022-08-30T10:41:32.395Z,6.35
2022-08-30T10:44:25.467Z,6.55
2022-08-30T10:47:10.334Z,5.63
2022-08-30T10:49:44.897Z,6.20
2022-08-30T10:52:20.326Z,6.13
2022-08-30T10:54:59.159Z,6.18
2022-08-30T10:57:27.013Z,5.65
2022-08-30T11:00:08.310Z,6.30
2022-08-30T11:02:54.334Z,6.37
2022-08-30T11:05:40.717Z,5.97
2022-08-30T11:08:40.472Z,5.70
2022-08-30T11:11:16.304Z,4.97
2022-08-30T11:13:46.088Z,4.85
2022-08-30T11:16:16.508Z,5.10
2022-08-30T11:18:47.244Z,5.75
2022-08-30T11:21:35.719Z,5.85
2022-08-30T11:24:04.785Z,5.25
2022-08-30T11:26:50.288Z,5.43
2022-08-30T11:29:27.268Z,5.57
2022-08-30T11:32:18.873Z,5.15
2022-08-30T11:34:48.410Z,5.25
2022-08-30T11:37:40.158Z,5.53
2022-08-30T11:40:26.456Z,5.22
2022-08-30T11:42:56.113Z,5.23
2022-08-30T11:45:24.995Z,5.40
2022-08-30T11:47:55.561Z,5.45
2022-08-30T11:50:31.905Z,5.15
2022-08-30T11:53:27.117Z,5.47
2022-08-30T11:56:22.068Z,4.70
2022-08-30T11:58:57.433Z,5.15
2022-08-30T12:01:51.815Z,5.13
2022-08-30T12:04:36.145Z,5.15
2022-08-30T12:07:07.080Z,5.47
2022-08-30T12:09:35.996Z,5.10
2022-08-30T12:12:13.127Z,4.43
2022-08-30T12:14:44.933Z,5.35
2022-08-30T12:18:07.269Z,4.85
2022-08-30T12:20:47.477Z,4.50
2022-08-30T12:23:23.735Z,4.93
2022-08-30T12:26:14.775Z,4.82
2022-08-30T12:28:43.759Z,4.07
2022-08-30T12:31:26.229Z,5.03
2022-08-30T12:34:02.039Z,4.55
2022-08-30T12:36:42.408Z,5.07
2022-08-30T12:39:21.219Z,4.70
2022-08-30T12:41:48.891Z,4.88
2022-08-30T12:44:21.477Z,4.68
2022-08-30T12:46:55.923Z,4.63
2022-08-30T12:49:28.457Z,4.20
2022-08-30T12:52:17.055Z,4.30
2022-08-30T12:54:45.531Z,4.18
2022-08-30T12:57:34.195Z,4.20
2022-08-30T13:00:02.037Z,5.50
2022-08-30T13:02:54.075Z,5.87
2022-08-30T13:05:30.364Z,4.45
2022-08-30T13:08:16.194Z,4.97
2022-08-30T13:11:23.931Z,4.60
2022-08-30T13:13:55.756Z,4.40
2022-08-30T13:16:29.250Z,5.63
2022-08-30T13:19:33.970Z,4.97
2022-08-30T13:22:02.697Z,5.60
2022-08-30T13:24:31.533Z,5.25
2022-08-30T13:27:12.247Z,5.88
2022-08-30T13:29:40.749Z,5.10
2022-08-30T13:32:09.540Z,4.68
2022-08-30T13:34:37.096Z,4.32
2022-08-30T13:37:44.274Z,3.88
2022-08-30T13:39:55.265Z,4.15
2022-08-30T13:42:38.034Z,4.00
2022-08-30T13:45:40.873Z,3.50
2022-08-30T13:47:54.855Z,3.50
2022-08-30T13:50:22.407Z,3.63
2022-08-30T13:52:51.623Z,3.28
2022-08-30T13:55:19.287Z,3.83
2022-08-30T13:57:56.048Z,3.42
2022-08-30T14:00:25.750Z,3.30
2022-08-30T14:02:58.217Z,3.10
2022-08-30T14:05:54.560Z,3.55
2022-08-30T14:08:45.939Z,3.33
2022-08-30T14:11:18.676Z,4.03
2022-08-30T14:16:36.962Z,3.50
2022-08-30T14:19:06.014Z,3.70
2022-08-30T14:21:36.109Z,3.70
2022-08-30T14:24:05.890Z,3.55
2022-08-30T14:26:45.784Z,4.65
2022-08-30T14:29:22.470Z,4.50
2022-08-30T14:31:52.345Z,4.80
2022-08-30T14:34:20.040Z,4.90
2022-08-30T14:36:47.753Z,4.38
2022-08-30T14:39:19.044Z,5.15
2022-08-30T14:41:52.730Z,4.85
2022-08-30T14:44:21.927Z,5.00
2022-08-30T14:46:51.031Z,4.63
2022-08-30T14:49:20.027Z,5.30
2022-08-30T14:51:48.784Z,5.18
2022-08-30T14:54:19.047Z,5.07
2022-08-30T14:56:49.471Z,5.53
2022-08-30T14:59:18.991Z,4.70
2022-08-30T15:01:46.806Z,4.57
2022-08-30T15:04:15.515Z,5.72
2022-08-30T15:06:46.566Z,4.70
2022-08-30T15:09:18.877Z,4.90
2022-08-30T15:11:51.966Z,6.50
2022-08-30T15:14:19.297Z,9.00
2022-08-30T15:16:46.871Z,10.65
2022-08-30T15:19:16.285Z,10.38
2022-08-30T15:21:46.694Z,10.43
2022-08-30T15:24:20.344Z,11.43
2022-08-30T15:26:55.260Z,10.02
2022-08-30T15:29:24.775Z,9.80
2022-08-30T15:31:52.799Z,9.48
2022-08-30T15:34:22.351Z,9.98
2022-08-30T15:36:56.053Z,9.90
2022-08-30T15:39:24.676Z,9.43
2022-08-30T15:41:57.357Z,8.73
2022-08-30T15:44:27.485Z,8.65
2022-08-30T15:46:54.996Z,9.38
2022-08-30T15:49:24.739Z,8.07
2022-08-30T15:51:53.967Z,7.72
2022-08-30T15:54:24.075Z,7.57
2022-08-30T15:56:59.586Z,8.88
2022-08-30T15:59:28.565Z,10.35
2022-08-30T16:01:56.008Z,8.63
2022-08-30T16:04:25.578Z,9.57
2022-08-30T16:06:53.266Z,10.45
2022-08-30T16:09:22.113Z,11.05
2022-08-30T16:11:49.562Z,11.10
2022-08-30T16:14:17.045Z,11.13
2022-08-30T16:16:46.736Z,13.07
2022-08-30T16:19:14.311Z,11.32
2022-08-30T16:21:43.044Z,11.90
2022-08-30T16:24:13.905Z,11.20
2022-08-30T16:26:43.274Z,10.80
2022-08-30T16:29:12.648Z,11.70
2022-08-30T16:31:47.398Z,11.63
2022-08-30T16:34:17.536Z,12.35
2022-08-30T16:36:45.385Z,12.10
2022-08-30T16:39:13.672Z,11.43
2022-08-30T16:41:44.343Z,12.63
2022-08-30T16:44:12.196Z,13.45
2022-08-30T16:46:41.306Z,13.45
2022-08-30T16:49:10.452Z,13.18
2022-08-30T16:51:38.332Z,13.83
2022-08-30T16:54:07.715Z,13.98
2022-08-30T16:56:36.531Z,13.18
2022-08-30T16:59:07.013Z,13.07
2022-08-30T17:01:38.407Z,13.18
2022-08-30T17:04:08.394Z,13.07
2022-08-30T17:06:36.280Z,13.05
2022-08-30T17:09:05.931Z,13.00
2022-08-30T17:11:35.204Z,13.02
2022-08-30T17:14:02.826Z,13.48
2022-08-30T17:16:30.769Z,14.00
2022-08-30T17:19:00.914Z,13.13
2022-08-30T17:21:31.509Z,13.52
2022-08-30T17:24:02.834Z,12.93
2022-08-30T17:26:32.164Z,13.30
2022-08-30T17:29:01.361Z,12.73
2022-08-30T17:31:31.260Z,13.10
2022-08-30T17:34:04.312Z,12.75
2022-08-30T17:36:35.496Z,12.68
2022-08-30T17:39:11.186Z,12.63
2022-08-30T17:41:45.197Z,13.07
2022-08-30T17:44:17.157Z,12.80
2022-08-30T17:46:45.474Z,12.25
2022-08-30T17:49:13.117Z,12.88
2022-08-30T17:51:42.699Z,12.32
2022-08-30T17:54:12.993Z,13.70
2022-08-30T17:56:43.904Z,14.20
2022-08-30T17:59:12.788Z,13.50
2022-08-30T18:01:42.214Z,13.30
2022-08-30T18:04:10.476Z,12.70
2022-08-30T18:06:38.545Z,12.00
2022-08-30T18:09:08.856Z,10.27
2022-08-30T18:11:42.465Z,10.73
2022-08-30T18:14:11.535Z,11.25
2022-08-30T18:16:49.683Z,10.52
2022-08-30T18:19:20.711Z,10.63
2022-08-30T18:21:48.191Z,10.70
2022-08-30T18:24:16.758Z,10.68
2022-08-30T18:26:44.207Z,10.57
2022-08-30T18:29:11.767Z,10.45
2022-08-30T18:31:39.668Z,10.70
2022-08-30T18:34:12.529Z,9.82
2022-08-30T18:36:41.380Z,9.25
2022-08-30T18:39:09.549Z,7.63
2022-08-30T18:41:42.967Z,8.73
2022-08-30T18:44:26.709Z,8.00
2022-08-30T18:46:56.687Z,7.65
2022-08-30T18:49:26.052Z,7.43
2022-08-30T18:51:53.732Z,7.43
2022-08-30T18:54:21.128Z,8.20
2022-08-30T18:56:48.757Z,7.30
2022-08-30T18:59:16.689Z,7.03
2022-08-30T19:01:45.694Z,7.03
2022-08-30T19:04:22.563Z,7.32
2022-08-30T19:06:58.718Z,8.00
2022-08-30T19:09:26.920Z,7.30
2022-08-30T19:11:55.257Z,8.15
2022-08-30T19:14:22.765Z,7.20
2022-08-30T19:16:50.295Z,7.20
2022-08-30T19:19:17.709Z,7.13
2022-08-30T19:21:45.029Z,8.87
2022-08-30T19:24:13.036Z,7.85
2022-08-30T19:26:46.967Z,7.80
2022-08-30T19:29:15.219Z,8.43
2022-08-30T19:31:44.170Z,7.50
2022-08-30T19:34:12.258Z,6.40
2022-08-30T19:36:39.949Z,7.03
2022-08-30T19:39:07.972Z,6.05
2022-08-30T19:41:35.604Z,5.68
2022-08-30T19:44:05.506Z,5.22
2022-08-30T19:46:33.390Z,5.33
2022-08-30T19:49:05.201Z,5.68
2022-08-30T19:51:32.611Z,7.55
2022-08-30T19:54:01.001Z,5.90
2022-08-30T19:56:28.672Z,6.18
2022-08-30T19:58:56.271Z,5.27
2022-08-30T20:01:32.431Z,5.43
2022-08-30T20:04:02.467Z,5.45
2022-08-30T20:06:31.784Z,5.90
2022-08-30T20:09:00.820Z,5.82
2022-08-30T20:11:28.980Z,5.93
2022-08-30T20:13:57.001Z,5.68
2022-08-30T20:16:30.989Z,6.00
2022-08-30T20:19:07.220Z,6.00
2022-08-30T20:21:35.534Z,6.00
2022-08-30T20:24:03.907Z,5.93
2022-08-30T20:26:34.529Z,5.80
2022-08-30T20:29:03.538Z,5.60
2022-08-30T20:31:31.026Z,5.70
2022-08-30T20:33:58.552Z,5.78
2022-08-30T20:36:27.252Z,5.77
2022-08-30T20:38:54.616Z,5.95
2022-08-30T20:41:23.597Z,6.15
2022-08-30T20:43:52.102Z,6.30
2022-08-30T20:46:20.760Z,5.72
2022-08-30T20:48:48.646Z,5.60
2022-08-30T20:51:20.579Z,6.22
2022-08-30T20:53:48.165Z,6.00
2022-08-30T20:56:18.943Z,6.18
2022-08-30T20:58:46.907Z,5.57
2022-08-30T21:01:16.475Z,6.00
2022-08-30T21:03:45.701Z,5.85
2022-08-30T21:06:13.231Z,5.47
2022-08-30T21:08:40.865Z,5.13
2022-08-30T21:11:08.830Z,5.32
2022-08-30T21:13:37.757Z,5.10
2022-08-30T21:16:05.979Z,5.28
2022-08-30T21:18:34.826Z,5.55
2022-08-30T21:21:13.721Z,5.22
2022-08-30T21:23:43.025Z,5.85
2022-08-30T21:26:11.144Z,5.17
2022-08-30T21:28:39.422Z,5.45
2022-08-30T21:31:13.057Z,6.30
2022-08-30T21:33:41.711Z,6.28
2022-08-30T21:36:28.204Z,7.13
2022-08-30T21:39:00.531Z,7.23
2022-08-30T21:41:29.464Z,7.05
2022-08-30T21:43:58.472Z,7.13
2022-08-30T21:46:27.889Z,7.50
2022-08-30T21:48:57.396Z,7.57
2022-08-30T21:51:25.368Z,7.37
2022-08-30T21:53:52.781Z,7.20
2022-08-30T21:56:22.247Z,7.80
2022-08-30T21:58:50.937Z,7.28
2022-08-30T22:01:25.571Z,6.80
2022-08-30T22:03:55.141Z,7.17
2022-08-30T22:06:25.260Z,7.38
2022-08-30T22:09:01.653Z,7.20
2022-08-30T22:11:31.447Z,6.80
2022-08-30T22:13:59.480Z,7.10
2022-08-30T22:16:29.225Z,7.40
2022-08-30T22:18:57.747Z,7.32
2022-08-30T22:21:27.164Z,7.57
2022-08-30T22:23:54.694Z,7.35
2022-08-30T22:26:23.117Z,7.35
2022-08-30T22:28:52.709Z,7.20
2022-08-30T22:31:21.712Z,7.50
2022-08-30T22:33:49.348Z,7.68
2022-08-30T22:36:32.707Z,7.10
2022-08-30T22:39:02.258Z,7.35
2022-08-30T22:41:34.313Z,7.03
2022-08-30T22:44:02.444Z,8.00
2022-08-30T22:46:34.372Z,7.15
2022-08-30T22:49:07.031Z,7.60
2022-08-30T22:51:34.797Z,7.65
2022-08-30T22:54:02.966Z,7.00
2022-08-30T22:56:31.052Z,7.80
2022-08-30T22:58:58.429Z,7.20
2022-08-30T23:01:32.138Z,7.32
2022-08-30T23:04:01.286Z,8.05
2022-08-30T23:06:29.702Z,7.83
2022-08-30T23:08:57.335Z,7.70
2022-08-30T23:11:25.272Z,7.88
2022-08-30T23:13:53.527Z,7.45
2022-08-30T23:16:21.991Z,7.80
2022-08-30T23:18:49.462Z,6.87
2022-08-30T23:21:26.269Z,7.72
2022-08-30T23:24:13.597Z,8.18
2022-08-30T23:27:00.863Z,7.30
2022-08-30T23:29:49.301Z,7.65
2022-08-30T23:32:35.141Z,7.40
2022-08-30T23:35:20.933Z,7.72
2022-08-30T23:38:12.629Z,7.45
2022-08-30T23:40:58.911Z,7.85
2022-08-30T23:43:44.744Z,7.32
2022-08-30T23:46:30.641Z,8.13
2022-08-30T23:49:16.540Z,7.88
2022-08-30T23:52:02.095Z,7.80
2022-08-30T23:54:47.780Z,7.68
2022-08-30T23:57:33.631Z,7.55
